Time;durP1;ratioP1;P1;durP2;ratioP2;P2;SDS_P1;SDS_P2;PMS_P1;PMS_P2;Temp;Humidity;BMP_temperature;BMP_pressure;BME280_temperature;BME280_humidity;BME280_pressure;Samples;Min_cycle;Max_cycle;Signal;HPM_P1;HPM_P2
2022/06/11 00:02:18;;;;;;;6.60;3.87;;;17.70;85.60;;;;;;4963492;28;20019;-65
2022/06/11 00:04:44;;;;;;;7.65;4.00;;;17.70;85.60;;;;;;4963899;29;20027;-65
2022/06/11 00:07:13;;;;;;;3.80;3.40;;;17.60;85.30;;;;;;4964124;29;20341;-65
2022/06/11 00:09:39;;;;;;;4.03;3.15;;;17.60;84.90;;;;;;4964015;29;20085;-65
2022/06/11 00:12:05;;;;;;;6.80;3.67;;;17.60;85.40;;;;;;4963614;28;20047;-65
2022/06/11 00:14:31;;;;;;;5.40;3.92;;;17.60;85.40;;;;;;4947063;29;20034;-65
2022/06/11 00:16:58;;;;;;;6.50;4.18;;;17.50;85.10;;;;;;4964043;29;20027;-65
2022/06/11 00:19:24;;;;;;;4.63;3.55;;;17.50;85.80;;;;;;4963973;29;20142;-65
2022/06/11 00:21:51;;;;;;;9.27;3.87;;;17.50;85.90;;;;;;4951127;28;20023;-65
2022/06/11 00:24:17;;;;;;;4.70;3.75;;;17.40;86.20;;;;;;4983091;28;20388;-65
2022/06/11 00:26:44;;;;;;;6.68;3.55;;;17.40;86.40;;;;;;4986979;28;20022;-65
2022/06/11 00:29:11;;;;;;;4.47;3.65;;;17.30;87.80;;;;;;4987147;28;20027;-65
2022/06/11 00:31:37;;;;;;;;;;;17.30;87.50;;;;;;4970062;28;20030;-65
2022/06/11 00:34:02;;;;;;;5.28;3.30;;;17.30;87.60;;;;;;4986747;28;19978;-65
2022/06/11 00:36:28;;;;;;;4.70;3.37;;;17.20;87.90;;;;;;4986985;28;20228;-65
2022/06/11 00:38:54;;;;;;;5.63;4.30;;;17.20;87.00;;;;;;4986836;28;20049;-65
2022/06/11 00:43:48;;;;;;;6.38;3.55;;;17.10;88.10;;;;;;5058140;23;20049;-63
2022/06/11 00:46:42;;;;;;;4.80;3.90;;;17.10;88.40;;;;;;5024368;28;20265;-62
2022/06/11 00:49:53;;;;;;;6.13;4.05;;;17.10;88.60;;;;;;5012105;28;20029;-63
2022/06/11 00:52:38;;;;;;;5.15;3.42;;;17.00;88.40;;;;;;4999548;28;20099;-63
2022/06/11 00:55:19;;;;;;;4.82;3.50;;;17.00;89.10;;;;;;5027731;28;20223;-63
2022/06/11 00:57:54;;;;;;;6.72;3.78;;;16.90;89.30;;;;;;5012665;28;20028;-63
2022/06/11 01:00:26;;;;;;;4.22;3.72;;;16.90;88.50;;;;;;5011362;28;20033;-62
2022/06/11 01:02:52;;;;;;;5.32;3.22;;;16.90;89.40;;;;;;5044877;28;20028;-62
2022/06/11 01:05:23;;;;;;;5.60;3.78;;;16.80;89.20;;;;;;5044988;28;20338;-63
2022/06/11 01:08:04;;;;;;;4.32;3.63;;;16.70;89.40;;;;;;5045094;28;20398;-62
2022/06/11 01:11:15;;;;;;;4.38;3.75;;;16.70;89.50;;;;;;5027463;28;20022;-62
2022/06/11 01:14:08;;;;;;;6.05;3.63;;;16.70;90.20;;;;;;5026603;28;20096;-63
2022/06/11 01:17:00;;;;;;;5.05;4.07;;;16.70;90.00;;;;;;5029808;28;20335;-62
2022/06/11 01:19:35;;;;;;;5.43;3.70;;;16.60;90.40;;;;;;5029783;28;20053;-62
2022/06/11 01:22:31;;;;;;;6.38;3.63;;;16.60;90.20;;;;;;5044406;28;20395;-62
2022/06/11 01:25:37;;;;;;;5.07;3.85;;;16.60;90.40;;;;;;5006993;28;20018;-62
2022/06/11 01:28:33;;;;;;;8.20;3.45;;;16.50;90.40;;;;;;5024782;28;20265;-62
2022/06/11 01:31:11;;;;;;;6.10;3.92;;;16.50;90.60;;;;;;5024905;28;20047;-62
2022/06/11 01:34:20;;;;;;;10.32;4.30;;;16.50;90.70;;;;;;5023252;28;20021;-63
2022/06/11 01:36:47;;;;;;;;;;;16.50;90.60;;;;;;5024321;28;20076;-62
2022/06/11 01:39:23;;;;;;;7.43;4.30;;;16.40;91.00;;;;;;5023224;28;19916;-63
2022/06/11 01:41:54;;;;;;;5.65;3.90;;;16.40;90.90;;;;;;4991111;28;20032;-63
2022/06/11 01:44:27;;;;;;;7.32;3.70;;;16.40;91.00;;;;;;5006792;28;20029;-62
2022/06/11 01:46:53;;;;;;;6.70;3.97;;;16.30;91.00;;;;;;5024115;28;20213;-62
2022/06/11 01:49:22;;;;;;;;;;;16.30;91.10;;;;;;5024448;28;20198;-63
2022/06/11 01:52:29;;;;;;;6.28;3.70;;;16.30;91.10;;;;;;5024421;28;19964;-63
2022/06/11 01:55:35;;;;;;;4.60;3.53;;;16.30;91.00;;;;;;5006621;28;20021;-63
2022/06/11 01:58:39;;;;;;;6.57;4.32;;;16.20;91.20;;;;;;5024179;28;20049;-62
2022/06/11 02:01:37;;;;;;;4.97;4.47;;;16.20;91.20;;;;;;5024114;28;20026;-63
2022/06/11 02:04:30;;;;;;;5.55;4.30;;;16.20;91.00;;;;;;5013576;28;20032;-63
2022/06/11 02:07:14;;;;;;;6.72;4.10;;;16.20;91.10;;;;;;5043930;28;20088;-62
2022/06/11 02:09:52;;;;;;;7.22;4.00;;;16.20;91.10;;;;;;5011210;28;20324;-62
2022/06/11 02:12:33;;;;;;;;;;;16.20;91.10;;;;;;5026659;28;20140;-62
2022/06/11 02:15:28;;;;;;;5.68;3.92;;;16.20;91.20;;;;;;5010703;28;19905;-63
2022/06/11 02:17:57;;;;;;;4.47;3.85;;;16.10;91.20;;;;;;5009119;28;20029;-62
2022/06/11 02:20:41;;;;;;;7.25;4.03;;;16.10;91.10;;;;;;4990238;28;20038;-63
2022/06/11 02:23:26;;;;;;;5.55;3.80;;;16.00;91.10;;;;;;4977334;28;20071;-62
2022/06/11 02:25:56;;;;;;;7.07;3.72;;;16.00;91.10;;;;;;5001409;28;20021;-63
2022/06/11 02:28:26;;;;;;;9.40;4.15;;;15.90;91.20;;;;;;5006606;28;20044;-62
2022/06/11 02:30:52;;;;;;;9.27;5.07;;;15.90;91.50;;;;;;5023702;28;20028;-63
2022/06/11 02:33:18;;;;;;;5.78;4.00;;;15.80;91.80;;;;;;5005607;28;20017;-61
2022/06/11 02:35:57;;;;;;;5.88;3.80;;;15.80;91.60;;;;;;5006173;28;20197;-62
2022/06/11 02:38:24;;;;;;;5.90;4.20;;;15.80;91.90;;;;;;5023430;28;20343;-62
2022/06/11 02:40:59;;;;;;;9.07;4.28;;;15.80;91.70;;;;;;5006291;28;20260;-62
2022/06/11 02:43:24;;;;;;;8.45;4.18;;;15.70;91.80;;;;;;5005849;28;20021;-63
2022/06/11 02:45:50;;;;;;;6.50;3.60;;;15.70;91.90;;;;;;5023392;28;20220;-62
2022/06/11 02:48:16;;;;;;;4.67;3.70;;;15.70;92.00;;;;;;5022969;28;20028;-62
2022/06/11 02:50:42;;;;;;;7.23;3.80;;;15.70;91.80;;;;;;5023243;28;20026;-62
2022/06/11 02:53:08;;;;;;;6.97;4.03;;;15.70;92.00;;;;;;5005394;28;20021;-63
2022/06/11 02:55:35;;;;;;;5.70;3.40;;;15.60;91.70;;;;;;5035967;28;20228;-63
2022/06/11 02:58:01;;;;;;;5.20;3.70;;;15.60;91.90;;;;;;5042818;28;20021;-62
2022/06/11 03:00:31;;;;;;;5.50;3.60;;;15.60;92.10;;;;;;5042808;28;20073;-62
2022/06/11 03:02:57;;;;;;;5.38;3.90;;;15.60;91.80;;;;;;5042173;28;20029;-62
2022/06/11 03:05:29;;;;;;;5.23;3.80;;;15.60;91.70;;;;;;5025258;28;20024;-62
2022/06/11 03:07:56;;;;;;;5.25;3.58;;;15.50;91.90;;;;;;5042756;28;20027;-62
2022/06/11 03:10:22;;;;;;;;;;;15.50;92.50;;;;;;5043210;28;20017;-63
2022/06/11 03:12:48;;;;;;;4.60;3.88;;;15.50;92.30;;;;;;5042343;28;19976;-62
2022/06/11 03:15:15;;;;;;;5.97;3.90;;;15.50;92.10;;;;;;5042792;28;20075;-62
2022/06/11 03:17:41;;;;;;;4.65;3.50;;;15.50;92.00;;;;;;5042269;28;20033;-62
2022/06/11 03:20:08;;;;;;;5.47;4.50;;;15.50;92.00;;;;;;5042582;28;20025;-62
2022/06/11 03:22:33;;;;;;;;;;;15.50;91.80;;;;;;5042790;28;20255;-63
2022/06/11 03:24:59;;;;;;;4.78;4.18;;;15.50;92.30;;;;;;5042454;28;19912;-62
2022/06/11 03:27:25;;;;;;;6.53;4.23;;;15.40;92.00;;;;;;5042528;28;20324;-63
2022/06/11 03:29:51;;;;;;;7.37;4.47;;;15.40;92.20;;;;;;5042548;28;20072;-63
2022/06/11 03:32:18;;;;;;;5.77;4.00;;;15.30;92.30;;;;;;5042027;28;20021;-63
2022/06/11 03:34:45;;;;;;;6.30;4.30;;;15.30;92.70;;;;;;5024787;28;20309;-62
2022/06/11 03:37:10;;;;;;;5.88;4.00;;;15.30;92.10;;;;;;5042257;28;20092;-63
2022/06/11 03:39:36;;;;;;;6.77;4.60;;;15.30;92.20;;;;;;5042374;28;20080;-62
2022/06/11 03:42:02;;;;;;;5.05;4.15;;;15.30;92.40;;;;;;5042322;28;20025;-63
2022/06/11 03:44:29;;;;;;;5.33;3.57;;;15.30;92.30;;;;;;5042000;28;20020;-62
2022/06/11 03:46:55;;;;;;;5.22;4.13;;;15.30;92.40;;;;;;5042248;28;20264;-63
2022/06/11 03:49:21;;;;;;;6.63;4.20;;;15.30;92.30;;;;;;5025359;28;20026;-63
2022/06/11 03:51:47;;;;;;;4.72;3.67;;;15.20;91.90;;;;;;5024692;28;20029;-63
2022/06/11 03:54:13;;;;;;;8.30;4.50;;;15.30;92.10;;;;;;5041253;28;20212;-63
2022/06/11 03:56:39;;;;;;;6.47;3.80;;;15.20;92.00;;;;;;5042376;28;20095;-63
2022/06/11 03:59:05;;;;;;;5.47;4.30;;;15.20;91.80;;;;;;5042472;28;20018;-63
2022/06/11 04:01:31;;;;;;;6.30;4.53;;;15.20;92.30;;;;;;5045820;28;20053;-63
2022/06/11 04:03:59;;;;;;;5.30;4.45;;;15.10;91.80;;;;;;5045763;28;20033;-62
2022/06/11 04:06:50;;;;;;;4.90;3.83;;;14.90;91.70;;;;;;5046233;28;20027;-63
2022/06/11 04:09:26;;;;;;;5.35;4.25;;;14.70;92.10;;;;;;5027812;28;20021;-63
2022/06/11 04:11:51;;;;;;;6.68;4.18;;;14.70;92.20;;;;;;5045065;28;20021;-63
2022/06/11 04:14:17;;;;;;;5.23;4.17;;;14.60;93.20;;;;;;5044853;28;20396;-63
2022/06/11 04:16:53;;;;;;;5.53;4.10;;;14.70;93.00;;;;;;5009563;28;20044;-63
2022/06/11 04:19:35;;;;;;;5.25;4.22;;;14.80;93.20;;;;;;5024810;28;20208;-63
2022/06/11 04:22:01;;;;;;;5.63;3.83;;;14.80;93.30;;;;;;4993114;28;20217;-64
2022/06/11 04:24:27;;;;;;;5.77;4.20;;;14.90;93.60;;;;;;5025734;28;20033;-63
2022/06/11 04:26:55;;;;;;;8.88;4.45;;;14.90;93.50;;;;;;5025633;28;20280;-63
2022/06/11 04:29:31;;;;;;;6.28;4.32;;;14.90;93.00;;;;;;5025972;28;20032;-63
2022/06/11 04:31:58;;;;;;;4.63;4.10;;;15.00;92.60;;;;;;5025764;28;20040;-63
2022/06/11 04:34:24;;;;;;;;;;;15.00;93.20;;;;;;5008599;28;20029;-63
2022/06/11 04:36:51;;;;;;;6.25;4.20;;;15.10;93.20;;;;;;5025941;28;19905;-62
2022/06/11 04:39:19;;;;;;;7.68;4.78;;;15.10;93.30;;;;;;5025899;28;20072;-62
2022/06/11 04:41:44;;;;;;;6.35;4.20;;;15.10;93.50;;;;;;5025591;28;20359;-63
2022/06/11 04:44:10;;;;;;;6.87;4.23;;;15.20;93.00;;;;;;5007901;28;20026;-63
2022/06/11 04:46:36;;;;;;;7.25;4.35;;;15.40;93.00;;;;;;5025600;28;20221;-63
2022/06/11 04:49:03;;;;;;;4.50;3.77;;;15.50;93.00;;;;;;5025456;28;20030;-63
2022/06/11 04:51:29;;;;;;;7.10;4.50;;;15.60;92.70;;;;;;5025432;28;20610;-63
2022/06/11 04:53:55;;;;;;;5.17;3.97;;;15.70;92.60;;;;;;5025287;28;20021;-63
2022/06/11 04:56:23;;;;;;;6.72;4.13;;;15.80;92.30;;;;;;5024872;28;20391;-63
2022/06/11 04:58:49;;;;;;;5.07;4.00;;;15.80;92.40;;;;;;5008358;28;20041;-62
2022/06/11 05:01:15;;;;;;;4.85;4.05;;;15.90;92.70;;;;;;5025343;28;20014;-62
2022/06/11 05:03:41;;;;;;;6.67;4.40;;;15.90;92.50;;;;;;5024775;28;20076;-62
2022/06/11 05:06:07;;;;;;;6.43;4.03;;;15.70;91.20;;;;;;5025233;28;20032;-62
2022/06/11 05:08:32;;;;;;;7.03;4.53;;;15.40;91.90;;;;;;5025291;28;20232;-62
2022/06/11 05:10:58;;;;;;;7.50;4.10;;;15.60;92.80;;;;;;5024382;28;20051;-62
2022/06/11 05:13:24;;;;;;;7.47;4.50;;;15.40;92.50;;;;;;5024282;28;20081;-62
2022/06/11 05:15:53;;;;;;;6.40;4.60;;;15.20;92.30;;;;;;5025060;28;20049;-62
2022/06/11 05:18:20;;;;;;;5.60;4.40;;;15.40;92.70;;;;;;4991407;28;20029;-62
2022/06/11 05:20:45;;;;;;;;;;;15.40;92.30;;;;;;5007971;28;20030;-62
2022/06/11 05:23:12;;;;;;;7.80;4.25;;;15.50;92.10;;;;;;5024649;28;19914;-63
2022/06/11 05:25:38;;;;;;;8.70;5.43;;;15.60;93.00;;;;;;5024851;28;20033;-63
2022/06/11 05:28:07;;;;;;;6.47;5.47;;;15.60;92.60;;;;;;5025020;28;20045;-62
2022/06/11 05:30:34;;;;;;;9.93;5.00;;;15.80;93.50;;;;;;5011175;28;20025;-62
2022/06/11 05:33:00;;;;;;;8.07;4.93;;;15.80;92.00;;;;;;5044071;28;20310;-62
2022/06/11 05:35:28;;;;;;;5.57;4.70;;;15.80;92.80;;;;;;5044503;28;20025;-62
2022/06/11 05:37:56;;;;;;;5.20;4.05;;;15.90;92.30;;;;;;5044433;28;20099;-63
2022/06/11 05:40:25;;;;;;;6.10;5.15;;;15.80;92.30;;;;;;5044203;28;20343;-63
2022/06/11 05:42:50;;;;;;;10.25;4.88;;;15.70;92.30;;;;;;5041040;28;20254;-63
2022/06/11 05:45:20;;;;;;;5.67;4.40;;;15.60;92.50;;;;;;5043942;28;20017;-63
2022/06/11 05:47:47;;;;;;;6.18;4.65;;;15.70;92.90;;;;;;5009845;28;20107;-63
2022/06/11 05:50:31;;;;;;;6.63;5.40;;;15.90;93.10;;;;;;5025386;28;20089;-63
2022/06/11 05:52:57;;;;;;;8.80;5.28;;;16.10;93.00;;;;;;5010152;28;20025;-63
2022/06/11 05:55:26;;;;;;;5.60;4.85;;;16.10;92.40;;;;;;5009377;28;20025;-63
2022/06/11 05:57:53;;;;;;;6.72;4.93;;;16.30;92.90;;;;;;5043820;28;20381;-63
2022/06/11 06:00:19;;;;;;;9.77;5.68;;;16.20;92.20;;;;;;5006819;28;20033;-63
2022/06/11 06:02:45;;;;;;;7.35;5.40;;;16.30;92.70;;;;;;5005815;28;20029;-62
2022/06/11 06:05:14;;;;;;;8.23;5.00;;;16.40;92.50;;;;;;5041160;28;20029;-62
2022/06/11 06:07:39;;;;;;;9.50;5.85;;;16.40;92.00;;;;;;5043463;28;20090;-62
2022/06/11 06:10:06;;;;;;;9.57;5.07;;;16.50;92.20;;;;;;5030782;28;20029;-62
2022/06/11 06:12:33;;;;;;;9.75;5.40;;;16.50;91.80;;;;;;5023896;28;20085;-63
2022/06/11 06:15:31;;;;;;;7.85;5.07;;;16.50;91.80;;;;;;5036337;28;20034;-63
2022/06/11 06:17:57;;;;;;;7.07;5.35;;;16.60;91.50;;;;;;5043551;28;20025;-62
2022/06/11 06:20:23;;;;;;;6.87;5.27;;;16.80;92.00;;;;;;5043639;28;20033;-62
2022/06/11 06:22:49;;;;;;;6.63;4.65;;;16.80;91.50;;;;;;5042604;28;20025;-62
2022/06/11 06:25:19;;;;;;;10.20;5.10;;;16.90;92.00;;;;;;5042610;28;20040;-62
2022/06/11 06:27:45;;;;;;;6.82;4.38;;;17.00;92.50;;;;;;5042151;28;20037;-62
2022/06/11 06:30:11;;;;;;;8.13;4.97;;;17.10;91.90;;;;;;5023741;28;20205;-71
2022/06/11 06:32:37;;;;;;;7.47;4.60;;;17.10;91.30;;;;;;5039276;28;20021;-72
2022/06/11 06:35:03;;;;;;;7.03;5.13;;;17.20;91.40;;;;;;5025617;28;20047;-73
2022/06/11 06:37:29;;;;;;;8.75;5.13;;;17.30;91.60;;;;;;5009685;28;20017;-72
2022/06/11 06:39:54;;;;;;;6.10;4.70;;;17.40;91.20;;;;;;5025583;28;20052;-72
2022/06/11 06:42:20;;;;;;;5.00;4.37;;;17.40;91.20;;;;;;5043031;28;20025;-72
2022/06/11 06:44:46;;;;;;;5.97;4.27;;;17.50;91.30;;;;;;5060616;23;20248;-72
2022/06/11 06:47:12;;;;;;;8.47;5.17;;;17.60;91.50;;;;;;5041276;28;20017;-72
2022/06/11 06:49:37;;;;;;;6.30;4.70;;;17.60;90.10;;;;;;5040745;28;20033;-72
2022/06/11 06:52:04;;;;;;;7.90;4.90;;;17.60;90.10;;;;;;5005060;28;20029;-72
2022/06/11 06:54:30;;;;;;;6.55;4.63;;;17.60;90.50;;;;;;5041176;28;20049;-72
2022/06/11 06:56:55;;;;;;;9.23;4.57;;;17.70;90.60;;;;;;5041714;28;20357;-71
2022/06/11 06:59:22;;;;;;;8.10;5.37;;;17.80;90.10;;;;;;5041659;28;20029;-72
2022/06/11 07:01:49;;;;;;;8.80;4.60;;;17.80;90.40;;;;;;5040456;28;20046;-72
2022/06/11 07:04:15;;;;;;;8.20;4.70;;;17.90;90.20;;;;;;5041363;28;20021;-72
2022/06/11 07:06:40;;;;;;;7.60;4.23;;;18.00;89.60;;;;;;5041293;28;20017;-72
2022/06/11 07:09:06;;;;;;;8.97;5.50;;;18.10;89.90;;;;;;5024139;28;20036;-72
2022/06/11 07:11:32;;;;;;;8.80;5.13;;;18.20;90.30;;;;;;5024059;28;20024;-72
2022/06/11 07:13:58;;;;;;;5.33;4.03;;;18.20;89.50;;;;;;5023805;28;20040;-71
2022/06/11 07:16:31;;;;;;;6.63;4.32;;;18.30;90.70;;;;;;5041599;28;20086;-72
2022/06/11 07:19:02;;;;;;;5.65;3.75;;;18.40;91.40;;;;;;5024518;28;20029;-72
2022/06/11 07:21:38;;;;;;;8.77;4.68;;;18.50;91.20;;;;;;4989151;28;20027;-72
2022/06/11 07:24:11;;;;;;;7.63;4.20;;;18.50;89.70;;;;;;5001578;28;20044;-73
2022/06/11 07:26:41;;;;;;;7.18;4.18;;;18.60;89.90;;;;;;5019029;28;20268;-72
2022/06/11 07:29:24;;;;;;;5.93;4.10;;;18.70;90.30;;;;;;5003935;28;20029;-68
2022/06/11 07:31:52;;;;;;;5.95;4.30;;;18.80;89.90;;;;;;5003829;28;20029;-71
2022/06/11 07:34:19;;;;;;;7.97;4.40;;;18.90;89.10;;;;;;4971044;28;20084;-73
2022/06/11 07:36:45;;;;;;;6.82;4.25;;;19.00;89.60;;;;;;5003934;28;20030;-66
2022/06/11 07:39:11;;;;;;;5.82;3.65;;;19.10;89.80;;;;;;5021247;28;20030;-66
2022/06/11 07:41:37;;;;;;;6.57;4.20;;;19.20;90.20;;;;;;5021294;28;20224;-65
2022/06/11 07:44:03;;;;;;;7.30;4.20;;;19.30;90.20;;;;;;5003490;28;21626;-65
2022/06/11 07:46:29;;;;;;;6.93;4.07;;;19.40;90.20;;;;;;5021135;28;20024;-66
2022/06/11 07:48:54;;;;;;;5.57;3.93;;;19.40;86.30;;;;;;5021385;28;20057;-66
2022/06/11 07:51:20;;;;;;;5.93;4.07;;;19.40;87.60;;;;;;5030043;28;20032;-66
2022/06/11 07:53:47;;;;;;;7.77;4.20;;;19.50;89.70;;;;;;5041345;28;20056;-66
2022/06/11 07:56:13;;;;;;;11.20;4.38;;;19.60;90.40;;;;;;5044967;28;20033;-66
2022/06/11 07:58:39;;;;;;;7.90;4.23;;;19.70;88.80;;;;;;5040717;28;20316;-66
2022/06/11 08:01:07;;;;;;;7.43;5.03;;;19.70;87.90;;;;;;5041079;28;20466;-66
2022/06/11 08:03:34;;;;;;;7.72;4.50;;;19.80;87.70;;;;;;5040721;28;20215;-66
2022/06/11 08:06:02;;;;;;;6.55;3.97;;;19.90;89.20;;;;;;5040712;28;20049;-66
2022/06/11 08:08:28;;;;;;;6.18;4.10;;;20.00;89.10;;;;;;5041087;28;20021;-66
2022/06/11 08:10:54;;;;;;;;;;;20.10;90.30;;;;;;5039358;28;20036;-66
2022/06/11 08:13:20;;;;;;;4.07;3.53;;;20.10;90.40;;;;;;5038405;28;19905;-66
2022/06/11 08:15:48;;;;;;;7.57;3.90;;;20.20;89.00;;;;;;5040719;28;20057;-66
2022/06/11 08:18:14;;;;;;;6.68;3.33;;;20.30;87.00;;;;;;5040871;28;20018;-66
2022/06/11 08:20:40;;;;;;;4.60;3.03;;;20.30;85.10;;;;;;5040465;28;20036;-66
2022/06/11 08:23:06;;;;;;;8.93;3.67;;;20.40;87.10;;;;;;5040661;28;20200;-66
2022/06/11 08:25:32;;;;;;;6.55;3.40;;;20.50;87.10;;;;;;5040766;28;20347;-66
2022/06/11 08:27:58;;;;;;;5.55;2.92;;;20.60;87.60;;;;;;5040859;28;20025;-67
2022/06/11 08:30:25;;;;;;;5.10;3.05;;;20.60;85.50;;;;;;5017109;28;20320;-67
2022/06/11 08:32:51;;;;;;;4.82;3.15;;;20.60;81.40;;;;;;5039900;28;20041;-66
2022/06/11 08:35:18;;;;;;;5.90;2.95;;;20.70;83.40;;;;;;5039900;28;20394;-66
2022/06/11 08:37:44;;;;;;;5.97;3.13;;;20.80;84.50;;;;;;5037552;28;20033;-66
2022/06/11 08:40:34;;;;;;;7.13;2.63;;;20.90;82.80;;;;;;5040515;28;20021;-66
2022/06/11 08:43:21;;;;;;;4.65;2.38;;;21.00;81.00;;;;;;5023460;28;20336;-66
2022/06/11 08:46:13;;;;;;;9.55;2.70;;;21.10;82.10;;;;;;5041248;28;20049;-66
2022/06/11 08:48:42;;;;;;;7.00;3.33;;;21.20;80.00;;;;;;5043910;28;20039;-66
2022/06/11 08:51:28;;;;;;;5.35;2.65;;;21.20;76.70;;;;;;5041122;28;20021;-66
2022/06/11 08:53:56;;;;;;;3.70;2.58;;;21.30;80.80;;;;;;5006655;28;20321;-66
2022/06/11 08:57:20;;;;;;;3.05;2.58;;;21.30;75.60;;;;;;5024443;28;20049;-66
2022/06/11 09:00:06;;;;;;;6.15;2.55;;;21.40;79.80;;;;;;4963799;29;20071;-66
2022/06/11 09:02:56;;;;;;;6.88;2.75;;;21.30;75.30;;;;;;5024341;28;20018;-66
2022/06/11 09:05:36;;;;;;;5.53;2.38;;;21.30;73.50;;;;;;5023887;28;20018;-66
2022/06/11 09:08:27;;;;;;;2.80;2.20;;;21.40;75.20;;;;;;5024358;28;20429;-66
2022/06/11 09:11:17;;;;;;;4.90;2.33;;;21.50;75.60;;;;;;5023947;28;20024;-66
2022/06/11 09:14:16;;;;;;;3.70;2.15;;;21.60;75.60;;;;;;5041266;28;20018;-66
2022/06/11 09:17:00;;;;;;;4.15;1.98;;;21.60;72.00;;;;;;5029728;28;20029;-67
2022/06/11 09:20:17;;;;;;;5.22;2.40;;;21.70;69.80;;;;;;5043836;28;20036;-66
2022/06/11 09:23:36;;;;;;;3.28;2.03;;;21.80;74.40;;;;;;4947266;29;20023;-66
2022/06/11 09:26:19;;;;;;;5.60;2.97;;;21.90;73.20;;;;;;5042709;28;20300;-66
2022/06/11 09:29:27;;;;;;;6.75;2.83;;;22.00;74.20;;;;;;5043691;28;20096;-66
2022/06/11 09:32:11;;;;;;;4.85;2.67;;;22.30;75.40;;;;;;5029564;28;20042;-69
2022/06/11 09:34:50;;;;;;;5.05;2.40;;;22.40;75.40;;;;;;5005765;28;20018;-69
2022/06/11 09:37:54;;;;;;;4.53;2.25;;;22.50;74.00;;;;;;5023265;28;20022;-69
2022/06/11 09:40:27;;;;;;;5.78;2.75;;;22.60;72.60;;;;;;5011439;28;20032;-69
2022/06/11 09:43:23;;;;;;;7.13;2.78;;;22.70;71.90;;;;;;5005616;28;20072;-71
2022/06/11 09:46:19;;;;;;;5.53;2.65;;;22.70;67.80;;;;;;5023462;28;20045;-71
2022/06/11 09:49:08;;;;;;;3.95;2.22;;;22.80;74.20;;;;;;5005815;28;20018;-69
2022/06/11 09:51:50;;;;;;;2.67;2.38;;;22.80;74.40;;;;;;5002939;28;20176;-69
2022/06/11 09:54:44;;;;;;;5.70;2.50;;;22.80;74.10;;;;;;4986233;28;20315;-69
2022/06/11 09:57:26;;;;;;;6.05;2.95;;;22.70;69.90;;;;;;4985661;28;20030;-70
2022/06/11 09:59:59;;;;;;;2.40;2.05;;;22.70;72.10;;;;;;4987800;28;20041;-70
2022/06/11 10:05:52;;;;;;;3.88;2.40;;;22.70;69.90;;;;;;4988505;28;20181;-70
2022/06/11 10:08:31;;;;;;;3.03;1.85;;;22.70;71.00;;;;;;4988616;28;20137;-69
2022/06/11 10:10:57;;;;;;;6.18;1.90;;;22.70;71.10;;;;;;5005307;28;20030;-70
2022/06/11 10:14:28;;;;;;;2.07;1.60;;;22.80;69.50;;;;;;5005207;28;20026;-70
2022/06/11 10:17:44;;;;;;;3.42;1.98;;;22.80;67.80;;;;;;5022926;28;20237;-70
2022/06/11 10:20:44;;;;;;;3.33;2.30;;;23.00;70.20;;;;;;5004569;28;20025;-70
2022/06/11 10:23:29;;;;;;;5.88;2.83;;;23.10;68.10;;;;;;5010344;28;20174;-69
2022/06/11 10:26:28;;;;;;;5.72;2.80;;;23.10;70.20;;;;;;5005086;28;20013;-70
2022/06/11 10:29:33;;;;;;;5.90;2.67;;;23.20;67.50;;;;;;4990626;28;20026;-70
2022/06/11 10:32:06;;;;;;;6.47;2.65;;;23.20;65.40;;;;;;4989060;28;20157;-70
2022/06/11 10:34:33;;;;;;;3.65;2.15;;;23.10;63.60;;;;;;4986988;28;20075;-70
2022/06/11 10:37:29;;;;;;;4.18;2.63;;;23.20;66.50;;;;;;5005017;28;20096;-70
2022/06/11 10:40:21;;;;;;;2.60;2.25;;;23.40;68.30;;;;;;5001451;28;20225;-69
2022/06/11 10:42:58;;;;;;;4.38;2.08;;;23.60;66.40;;;;;;4996454;28;20030;-70
2022/06/11 10:45:28;;;;;;;3.85;2.47;;;23.80;64.50;;;;;;4989218;28;20236;-70
2022/06/11 10:47:55;;;;;;;3.50;1.88;;;23.90;66.70;;;;;;5005494;28;20261;-70
2022/06/11 10:50:24;;;;;;;4.03;1.63;;;24.00;68.40;;;;;;4989082;28;20045;-70
2022/06/11 10:52:59;;;;;;;5.25;2.13;;;24.00;61.40;;;;;;5002993;28;20052;-70
2022/06/11 10:55:31;;;;;;;3.53;1.88;;;24.00;66.00;;;;;;4989268;28;20206;-70
2022/06/11 10:57:57;;;;;;;2.90;1.95;;;24.00;60.10;;;;;;5022046;28;20041;-70
2022/06/11 11:00:30;;;;;;;4.60;1.87;;;24.00;60.90;;;;;;4988422;28;20048;-70
2022/06/11 11:03:17;;;;;;;5.50;1.95;;;24.00;60.00;;;;;;4972977;28;20607;-70
2022/06/11 11:06:10;;;;;;;2.67;1.83;;;24.00;60.50;;;;;;5003640;28;20037;-71
2022/06/11 11:08:36;;;;;;;5.90;2.25;;;24.10;62.90;;;;;;4985231;28;20049;-69
2022/06/11 11:11:02;;;;;;;;;;;24.10;63.00;;;;;;4985512;28;20292;-68
2022/06/11 11:13:42;;;;;;;1.83;1.60;;;24.20;59.40;;;;;;4984644;28;19989;-71
2022/06/11 11:16:13;;;;;;;9.70;2.58;;;24.20;60.80;;;;;;4985249;28;20069;-66
2022/06/11 11:18:58;;;;;;;4.75;2.00;;;24.20;62.00;;;;;;4985377;28;20025;-67
2022/06/11 11:22:05;;;;;;;4.53;1.85;;;24.00;60.00;;;;;;5001813;28;20034;-67
2022/06/11 11:24:43;;;;;;;5.50;1.90;;;24.00;63.40;;;;;;5002272;28;20022;-67
2022/06/11 11:27:26;;;;;;;2.80;1.90;;;24.00;61.20;;;;;;4972934;28;20030;-71
2022/06/11 11:30:14;;;;;;;1.95;1.60;;;24.10;60.70;;;;;;5000781;28;20089;-66
2022/06/11 11:32:40;;;;;;;3.70;1.70;;;24.30;63.00;;;;;;4987501;28;20044;-66
2022/06/11 11:35:18;;;;;;;2.38;1.70;;;24.30;58.80;;;;;;5001644;28;20041;-66
2022/06/11 11:37:44;;;;;;;5.60;2.13;;;24.20;58.40;;;;;;5002108;28;20090;-66
2022/06/11 11:40:33;;;;;;;2.28;1.40;;;24.20;59.50;;;;;;4984788;28;20308;-66
2022/06/11 11:43:10;;;;;;;2.00;1.40;;;24.10;58.40;;;;;;5001715;28;20045;-66
2022/06/11 11:45:57;;;;;;;3.63;1.05;;;24.10;59.40;;;;;;4985688;28;20101;-66
2022/06/11 11:48:47;;;;;;;3.97;1.52;;;24.20;57.40;;;;;;4984967;28;20049;-66
2022/06/11 11:51:27;;;;;;;2.33;1.75;;;24.40;56.50;;;;;;4984337;28;20033;-66
2022/06/11 11:54:14;;;;;;;2.38;1.60;;;24.50;58.90;;;;;;4987526;28;20228;-67
2022/06/11 11:56:53;;;;;;;3.13;1.52;;;24.80;57.70;;;;;;5007230;28;20049;-67
2022/06/11 11:59:39;;;;;;;4.40;1.83;;;24.90;57.80;;;;;;5005673;28;20084;-68
2022/06/11 12:02:19;;;;;;;3.50;1.40;;;25.10;59.40;;;;;;4986023;28;20018;-67
2022/06/11 12:05:00;;;;;;;1.83;1.50;;;25.30;57.50;;;;;;4995685;28;20034;-67
2022/06/11 12:07:43;;;;;;;3.22;1.40;;;25.50;58.80;;;;;;5019111;28;20107;-67
2022/06/11 12:10:35;;;;;;;3.28;1.60;;;25.60;58.30;;;;;;5004261;28;20026;-67
2022/06/11 12:13:01;;;;;;;4.15;1.90;;;25.70;59.30;;;;;;5002940;28;20053;-67
2022/06/11 12:15:29;;;;;;;2.80;1.88;;;25.60;54.50;;;;;;5021058;28;20052;-67
2022/06/11 12:18:11;;;;;;;4.13;1.58;;;25.50;55.40;;;;;;5014649;28;20033;-67
2022/06/11 12:20:44;;;;;;;3.00;1.85;;;25.50;56.50;;;;;;4988966;28;20083;-67
2022/06/11 12:23:39;;;;;;;2.88;1.65;;;25.40;58.60;;;;;;5024494;28;20124;-67
2022/06/11 12:26:21;;;;;;;2.55;1.55;;;25.40;57.80;;;;;;5010173;28;20030;-67
2022/06/11 12:28:50;;;;;;;2.78;1.75;;;25.40;57.00;;;;;;5001115;28;20212;-67
2022/06/11 12:31:16;;;;;;;2.78;1.60;;;25.50;56.00;;;;;;5024916;28;20064;-67
2022/06/11 12:33:43;;;;;;;1.85;1.40;;;25.70;56.00;;;;;;5006764;28;20051;-67
2022/06/11 12:36:58;;;;;;;4.20;1.45;;;26.00;53.80;;;;;;5003140;28;20441;-67
2022/06/11 12:40:01;;;;;;;2.00;1.38;;;26.30;53.10;;;;;;5023973;28;20033;-67
2022/06/11 12:42:48;;;;;;;1.85;1.40;;;26.50;53.30;;;;;;5007669;28;20304;-67
2022/06/11 12:46:16;;;;;;;2.70;1.92;;;26.60;55.20;;;;;;5049048;23;20042;-68
2022/06/11 12:49:07;;;;;;;3.67;1.75;;;26.50;55.20;;;;;;4984775;28;20026;-68
2022/06/11 12:51:51;;;;;;;4.50;1.63;;;26.50;55.70;;;;;;5004466;28;20030;-68
2022/06/11 12:54:49;;;;;;;3.63;1.58;;;26.70;56.70;;;;;;5001850;28;20026;-68
2022/06/11 12:57:42;;;;;;;2.10;1.50;;;26.90;56.00;;;;;;5001455;28;20018;-67
2022/06/11 13:00:12;;;;;;;2.33;1.60;;;27.10;56.30;;;;;;5010237;28;20033;-68
2022/06/11 13:03:02;;;;;;;3.20;1.30;;;27.10;54.30;;;;;;5007351;28;20221;-68
2022/06/11 13:06:25;;;;;;;4.53;1.73;;;27.20;51.80;;;;;;5007231;28;20404;-66
2022/06/11 13:09:06;;;;;;;2.65;1.45;;;27.20;50.90;;;;;;5000527;28;20064;-66
2022/06/11 13:11:41;;;;;;;2.05;1.35;;;27.50;50.60;;;;;;4987225;28;20245;-66
2022/06/11 13:14:28;;;;;;;1.63;1.13;;;27.60;53.40;;;;;;5004741;28;20026;-66
2022/06/11 13:17:09;;;;;;;1.95;1.58;;;27.60;50.20;;;;;;5004969;28;20248;-66
2022/06/11 13:19:56;;;;;;;3.88;1.33;;;27.50;50.70;;;;;;5004788;28;20090;-66
2022/06/11 13:22:37;;;;;;;4.22;1.60;;;27.50;50.40;;;;;;4987588;28;20170;-66
2022/06/11 13:25:26;;;;;;;4.65;1.63;;;27.40;54.00;;;;;;4986813;28;20072;-65
2022/06/11 13:28:34;;;;;;;2.67;1.48;;;27.50;52.40;;;;;;5002902;28;20022;-66
2022/06/11 13:31:18;;;;;;;3.53;1.20;;;27.80;53.30;;;;;;5020029;28;20030;-67
2022/06/11 13:34:21;;;;;;;3.28;1.45;;;27.90;51.50;;;;;;4967906;28;20053;-67
2022/06/11 13:37:04;;;;;;;2.03;1.75;;;27.60;48.50;;;;;;4985818;28;20045;-66
2022/06/11 13:39:47;;;;;;;2.20;1.48;;;27.60;52.40;;;;;;5008201;28;20064;-67
2022/06/11 13:42:30;;;;;;;2.92;1.40;;;28.10;50.30;;;;;;4972513;28;20049;-66